createdAt,value
2017-05-05T00:02:18.032Z,2.00
2017-05-05T00:04:46.355Z,1.58
2017-05-05T00:07:14.637Z,3.26
2017-05-05T00:09:42.927Z,1.42
2017-05-05T00:12:12.002Z,2.98
2017-05-05T00:14:40.291Z,1.62
2017-05-05T00:17:08.580Z,2.16
2017-05-05T00:19:37.654Z,2.50
2017-05-05T00:22:05.939Z,3.26
2017-05-05T00:24:34.226Z,3.04
2017-05-05T00:27:03.318Z,3.78
2017-05-05T00:29:32.359Z,2.96
2017-05-05T00:32:00.894Z,1.92
2017-05-05T00:34:29.951Z,2.38
2017-05-05T00:36:58.240Z,2.70
2017-05-05T00:39:26.523Z,2.36
2017-05-05T00:41:54.839Z,2.54
2017-05-05T00:44:23.131Z,1.68
2017-05-05T00:46:51.422Z,2.42
2017-05-05T00:49:19.742Z,2.66
2017-05-05T00:51:48.030Z,2.94
2017-05-05T00:54:17.054Z,2.72
2017-05-05T00:56:45.377Z,3.20
2017-05-05T00:59:13.668Z,3.38
2017-05-05T01:01:41.951Z,2.10
2017-05-05T01:04:10.285Z,3.08
2017-05-05T01:06:38.570Z,2.78
2017-05-05T01:09:06.855Z,1.86
2017-05-05T01:11:35.163Z,1.80
2017-05-05T01:14:03.455Z,3.00
2017-05-05T01:16:32.486Z,2.60
2017-05-05T01:19:00.807Z,1.70
2017-05-05T01:21:29.095Z,2.32
2017-05-05T01:23:58.131Z,1.96
2017-05-05T01:26:26.460Z,1.66
2017-05-05T01:28:54.751Z,1.50
2017-05-05T01:31:23.774Z,1.46
2017-05-05T01:33:52.091Z,1.24
2017-05-05T01:36:20.388Z,1.60
2017-05-05T01:38:48.683Z,1.88
2017-05-05T01:41:17.754Z,2.00
2017-05-05T01:43:46.043Z,1.40
2017-05-05T01:46:15.076Z,2.30
2017-05-05T01:48:43.403Z,2.24
2017-05-05T01:51:11.699Z,2.26
2017-05-05T01:53:40.726Z,1.80
2017-05-05T01:56:09.052Z,1.94
2017-05-05T01:58:37.355Z,2.40
2017-05-05T02:01:06.384Z,1.98
2017-05-05T02:03:34.706Z,1.52
2017-05-05T02:06:02.995Z,1.16
2017-05-05T02:08:32.032Z,1.30
2017-05-05T02:11:00.355Z,1.38
2017-05-05T02:13:28.643Z,1.28
2017-05-05T02:15:57.675Z,1.50
2017-05-05T02:18:26.004Z,1.80
2017-05-05T02:20:54.294Z,1.34
2017-05-05T02:23:23.324Z,1.28
2017-05-05T02:25:51.643Z,1.72
2017-05-05T02:28:19.935Z,1.28
2017-05-05T02:30:48.215Z,1.10
2017-05-05T02:33:16.550Z,1.50
2017-05-05T02:35:44.839Z,1.86
2017-05-05T02:38:13.127Z,1.18
2017-05-05T02:40:41.455Z,1.12
2017-05-05T02:43:09.749Z,1.08
2017-05-05T02:45:38.043Z,0.76
2017-05-05T02:48:06.363Z,1.28
2017-05-05T02:50:34.651Z,0.94
2017-05-05T02:53:03.684Z,0.80
2017-05-05T02:55:32.024Z,0.94
2017-05-05T02:58:01.055Z,1.78
2017-05-05T03:00:29.344Z,0.78
2017-05-05T03:02:57.684Z,0.90
2017-05-05T03:05:25.979Z,0.72
2017-05-05T03:07:54.272Z,0.60
2017-05-05T03:10:22.591Z,0.72
2017-05-05T03:12:51.621Z,1.08
2017-05-05T03:15:19.916Z,1.02
2017-05-05T03:17:48.241Z,0.60
2017-05-05T03:20:17.268Z,0.60
2017-05-05T03:22:45.562Z,1.06
2017-05-05T03:25:13.883Z,1.00
2017-05-05T03:27:42.169Z,1.44
2017-05-05T03:30:11.203Z,0.98
2017-05-05T03:32:39.547Z,0.90
2017-05-05T03:35:08.575Z,1.60
2017-05-05T03:37:36.868Z,1.94
2017-05-05T03:40:05.187Z,2.20
2017-05-05T03:42:33.472Z,1.36
2017-05-05T03:45:02.503Z,1.14
2017-05-05T03:47:30.822Z,1.88
2017-05-05T03:49:59.103Z,1.36
2017-05-05T03:52:27.399Z,0.72
2017-05-05T03:54:56.466Z,0.84
2017-05-05T03:57:24.759Z,1.02
2017-05-05T03:59:53.046Z,1.00
2017-05-05T04:02:22.108Z,0.80
2017-05-05T04:04:50.395Z,1.16
2017-05-05T04:07:18.680Z,1.18
2017-05-05T04:09:46.998Z,0.62
2017-05-05T04:12:15.286Z,0.70
2017-05-05T04:14:43.571Z,0.60
2017-05-05T04:17:11.891Z,0.74
2017-05-05T04:19:40.183Z,0.60
2017-05-05T04:22:09.211Z,1.20
2017-05-05T04:24:37.547Z,0.90
2017-05-05T04:27:05.838Z,0.66
2017-05-05T04:29:34.871Z,1.00
2017-05-05T04:32:03.183Z,0.98
2017-05-05T04:34:31.475Z,0.96
2017-05-05T04:36:59.766Z,1.00
2017-05-05T04:39:28.831Z,0.76
2017-05-05T04:41:57.124Z,0.60
2017-05-05T04:44:25.423Z,0.46
2017-05-05T04:46:54.482Z,0.90
2017-05-05T04:49:22.776Z,0.80
2017-05-05T04:51:51.062Z,0.50
2017-05-05T04:54:20.126Z,0.70
2017-05-05T04:56:48.416Z,0.60
2017-05-05T04:59:16.712Z,1.22
2017-05-05T05:01:45.775Z,1.28
2017-05-05T05:04:14.064Z,0.70
2017-05-05T05:06:42.548Z,0.64
2017-05-05T05:09:10.871Z,0.80
2017-05-05T05:11:39.163Z,0.80
2017-05-05T05:14:07.451Z,0.84
2017-05-05T05:16:35.767Z,0.94
2017-05-05T05:19:04.061Z,1.30
2017-05-05T05:21:33.090Z,1.54
2017-05-05T05:24:01.427Z,1.50
2017-05-05T05:26:30.459Z,1.10
2017-05-05T05:28:58.748Z,1.80
2017-05-05T05:31:27.082Z,0.60
2017-05-05T05:33:56.114Z,1.34
2017-05-05T05:36:24.403Z,1.20
2017-05-05T05:38:52.735Z,0.96
2017-05-05T05:41:21.762Z,1.08
2017-05-05T05:43:50.055Z,2.30
2017-05-05T05:46:18.422Z,3.04
2017-05-05T05:48:46.710Z,2.72
2017-05-05T05:51:15.003Z,2.76
2017-05-05T05:53:43.329Z,2.76
2017-05-05T05:56:11.619Z,3.70
2017-05-05T05:58:39.912Z,2.86
2017-05-05T06:01:08.244Z,4.04
2017-05-05T06:03:37.271Z,3.18
2017-05-05T06:06:05.567Z,3.78
2017-05-05T06:08:33.904Z,2.36
2017-05-05T06:11:02.200Z,3.10
2017-05-05T06:13:30.482Z,4.06
2017-05-05T06:15:58.806Z,3.96
2017-05-05T06:18:27.095Z,4.16
2017-05-05T06:20:56.545Z,2.92
2017-05-05T06:23:24.902Z,2.52
2017-05-05T06:25:53.193Z,3.84
2017-05-05T06:28:21.482Z,3.98
2017-05-05T06:30:49.814Z,5.02
2017-05-05T06:33:18.851Z,4.82
2017-05-05T06:35:47.141Z,4.72
2017-05-05T06:38:15.472Z,5.18
2017-05-05T06:40:44.511Z,4.96
2017-05-05T06:43:12.811Z,4.78
2017-05-05T06:45:41.147Z,3.72
2017-05-05T06:48:09.438Z,4.12
2017-05-05T06:50:37.734Z,4.70
2017-05-05T06:53:06.071Z,3.88
2017-05-05T06:55:34.367Z,2.90
2017-05-05T06:58:02.658Z,4.58
2017-05-05T07:00:30.970Z,5.18
2017-05-05T07:02:59.264Z,5.62
2017-05-05T07:05:28.327Z,4.86
2017-05-05T07:07:56.623Z,5.00
2017-05-05T07:10:24.923Z,3.54
2017-05-05T07:12:53.246Z,2.66
2017-05-05T07:15:21.545Z,3.62
2017-05-05T07:17:49.838Z,4.60
2017-05-05T07:20:18.895Z,4.60
2017-05-05T07:22:47.189Z,4.02
2017-05-05T07:25:15.486Z,3.48
2017-05-05T07:27:44.539Z,4.20
2017-05-05T07:30:12.831Z,4.42
2017-05-05T07:32:41.158Z,3.92
2017-05-05T07:35:09.450Z,4.58
2017-05-05T07:37:37.743Z,4.00
2017-05-05T07:40:06.062Z,3.84
2017-05-05T07:42:34.351Z,3.14
2017-05-05T07:45:03.383Z,2.22
2017-05-05T07:47:31.698Z,2.94
2017-05-05T07:49:59.994Z,3.22
2017-05-05T07:52:29.031Z,3.30
2017-05-05T07:54:57.348Z,3.40
2017-05-05T07:57:25.642Z,3.62
2017-05-05T07:59:54.680Z,3.54
2017-05-05T08:02:23.001Z,3.32
2017-05-05T08:04:51.282Z,4.42
2017-05-05T08:07:19.574Z,3.94
2017-05-05T08:09:48.630Z,3.82
2017-05-05T08:12:16.930Z,2.94
2017-05-05T08:14:45.259Z,2.40
2017-05-05T08:17:13.557Z,3.02
2017-05-05T08:19:41.846Z,4.50
2017-05-05T08:22:10.162Z,3.60
2017-05-05T08:24:39.185Z,3.62
2017-05-05T08:27:07.502Z,2.98
2017-05-05T08:29:35.791Z,2.40
2017-05-05T08:32:04.165Z,3.20
2017-05-05T08:34:32.487Z,2.80
2017-05-05T08:37:00.779Z,2.76
2017-05-05T08:39:29.098Z,5.28
2017-05-05T08:41:57.387Z,3.44
2017-05-05T08:44:25.679Z,3.30
2017-05-05T08:46:54.727Z,3.26
2017-05-05T08:49:23.024Z,3.32
2017-05-05T08:51:51.358Z,2.50
2017-05-05T08:54:19.651Z,2.80
2017-05-05T08:56:47.952Z,2.28
2017-05-05T08:59:16.272Z,2.94
2017-05-05T09:01:44.566Z,2.58
2017-05-05T09:04:12.897Z,2.96
2017-05-05T09:06:41.195Z,2.58
2017-05-05T09:09:09.487Z,2.58
2017-05-05T09:11:37.798Z,2.56
2017-05-05T09:14:06.092Z,2.76
2017-05-05T09:16:34.415Z,2.12
2017-05-05T09:19:03.442Z,2.70
2017-05-05T09:21:31.732Z,2.88
2017-05-05T09:24:00.048Z,5.04
2017-05-05T09:26:29.086Z,11.20
2017-05-05T09:28:57.403Z,3.70
2017-05-05T09:31:25.694Z,3.32
2017-05-05T09:33:54.727Z,2.84
2017-05-05T09:36:23.034Z,2.78
2017-05-05T09:38:51.324Z,2.44
2017-05-05T09:41:19.682Z,3.14
2017-05-05T09:43:47.966Z,2.86
2017-05-05T09:46:16.256Z,3.34
2017-05-05T09:48:44.563Z,3.44
2017-05-05T09:51:13.662Z,3.38
2017-05-05T09:53:42.825Z,3.68
2017-05-05T09:56:11.115Z,3.00
2017-05-05T09:58:39.404Z,2.84
2017-05-05T10:01:08.460Z,3.50
2017-05-05T10:03:36.755Z,3.04
2017-05-05T10:06:05.100Z,3.32
2017-05-05T10:08:33.405Z,2.88
2017-05-05T10:11:01.699Z,3.54
2017-05-05T10:13:30.016Z,3.78
2017-05-05T10:15:58.303Z,3.08
2017-05-05T10:18:26.626Z,3.10
2017-05-05T10:20:54.930Z,2.68
2017-05-05T10:23:23.238Z,2.42
2017-05-05T10:25:51.557Z,2.68
2017-05-05T10:28:19.842Z,2.52
2017-05-05T10:30:48.144Z,3.04
2017-05-05T10:33:16.470Z,2.48
2017-05-05T10:35:44.786Z,3.00
2017-05-05T10:38:13.818Z,2.14
2017-05-05T10:40:42.138Z,2.38
2017-05-05T10:43:10.430Z,1.90
2017-05-05T10:45:38.726Z,2.60
2017-05-05T10:48:07.790Z,2.40
2017-05-05T10:50:36.082Z,2.60
2017-05-05T10:53:04.379Z,2.74
2017-05-05T10:55:33.436Z,2.38
2017-05-05T10:58:01.732Z,2.34
2017-05-05T11:00:30.027Z,2.70
2017-05-05T11:02:59.101Z,2.60
2017-05-05T11:05:27.393Z,2.34
2017-05-05T11:07:56.431Z,2.70
2017-05-05T11:10:24.756Z,2.74
2017-05-05T11:12:53.046Z,4.20
2017-05-05T11:15:22.078Z,3.44
2017-05-05T11:17:50.394Z,2.04
2017-05-05T11:20:18.683Z,2.56
2017-05-05T11:22:47.722Z,5.16
2017-05-05T11:25:16.042Z,1.94
2017-05-05T11:27:44.335Z,1.88
2017-05-05T11:30:13.368Z,2.10
2017-05-05T11:32:41.686Z,2.14
2017-05-05T11:35:09.975Z,2.06
2017-05-05T11:37:38.263Z,2.34
2017-05-05T11:40:07.330Z,1.94
2017-05-05T11:42:35.625Z,1.60
2017-05-05T11:45:03.920Z,2.02
2017-05-05T11:47:32.990Z,2.52
2017-05-05T11:50:01.279Z,2.70
2017-05-05T11:52:29.570Z,2.54
2017-05-05T11:54:58.627Z,2.10
2017-05-05T11:57:26.912Z,2.18
2017-05-05T11:59:58.669Z,2.12
2017-05-05T12:02:27.175Z,1.76
2017-05-05T12:04:56.218Z,1.46
2017-05-05T12:07:25.468Z,1.40
2017-05-05T12:09:53.873Z,1.72
2017-05-05T12:12:22.161Z,1.20
2017-05-05T12:14:50.454Z,1.80
2017-05-05T12:17:18.771Z,1.92
2017-05-05T12:19:47.063Z,1.70
2017-05-05T12:22:15.355Z,1.92
2017-05-05T12:24:44.431Z,2.16
2017-05-05T12:27:12.723Z,2.26
2017-05-05T12:29:41.761Z,1.96
2017-05-05T12:32:10.075Z,1.38
2017-05-05T12:34:38.366Z,1.34
2017-05-05T12:37:07.396Z,1.72
2017-05-05T12:39:35.725Z,1.40
2017-05-05T12:42:04.025Z,2.00
2017-05-05T12:44:33.055Z,2.06
2017-05-05T12:47:01.383Z,1.72
2017-05-05T12:49:29.675Z,1.34
2017-05-05T12:51:58.702Z,1.56
2017-05-05T12:54:27.030Z,1.40
2017-05-05T12:56:55.327Z,1.66
2017-05-05T12:59:24.354Z,0.94
2017-05-05T13:01:52.680Z,1.44
2017-05-05T13:04:20.967Z,1.62
2017-05-05T13:06:49.259Z,1.98
2017-05-05T13:09:17.586Z,1.62
2017-05-05T13:11:45.880Z,1.98
2017-05-05T13:14:14.175Z,2.14
2017-05-05T13:16:43.246Z,1.44
2017-05-05T13:19:11.535Z,1.40
2017-05-05T13:21:39.827Z,1.40
2017-05-05T13:24:08.880Z,1.30
2017-05-05T13:26:37.172Z,2.16
2017-05-05T13:29:05.863Z,1.54
2017-05-05T13:31:34.186Z,1.90
2017-05-05T13:34:02.474Z,2.46
2017-05-05T13:36:30.759Z,2.18
2017-05-05T13:38:59.080Z,1.90
2017-05-05T13:41:27.372Z,1.80
2017-05-05T13:43:56.402Z,1.80
2017-05-05T13:46:24.728Z,1.72
2017-05-05T13:48:53.019Z,1.70
2017-05-05T13:51:21.307Z,2.28
2017-05-05T13:53:50.370Z,2.40
2017-05-05T13:56:18.655Z,2.36
2017-05-05T13:58:46.947Z,2.60
2017-05-05T14:01:15.276Z,2.30
2017-05-05T14:03:44.307Z,2.28
2017-05-05T14:06:12.601Z,2.30
2017-05-05T14:08:40.919Z,3.38
2017-05-05T14:11:09.954Z,2.66
2017-05-05T14:13:38.247Z,2.42
2017-05-05T14:16:06.558Z,2.78
2017-05-05T14:18:34.846Z,2.20
2017-05-05T14:21:03.875Z,2.76
2017-05-05T14:23:32.200Z,4.12
2017-05-05T14:26:00.490Z,2.70
2017-05-05T14:28:29.522Z,3.70
2017-05-05T14:30:57.831Z,2.02
2017-05-05T14:33:26.131Z,2.02
2017-05-05T14:35:54.442Z,2.36
2017-05-05T14:38:22.741Z,2.12
2017-05-05T14:40:51.073Z,1.18
2017-05-05T14:43:19.371Z,1.56
2017-05-05T14:45:48.394Z,2.02
2017-05-05T14:48:16.718Z,2.20
2017-05-05T14:50:45.058Z,1.70
2017-05-05T14:53:13.347Z,1.90
2017-05-05T14:55:41.662Z,2.42
2017-05-05T14:58:10.695Z,2.28
2017-05-05T15:00:38.984Z,2.12
2017-05-05T15:03:07.300Z,1.80
2017-05-05T15:05:35.593Z,1.92
2017-05-05T15:08:04.620Z,2.28
2017-05-05T15:10:32.947Z,2.22
2017-05-05T15:13:01.238Z,2.50
2017-05-05T15:15:30.267Z,2.18
2017-05-05T15:17:58.591Z,2.06
2017-05-05T15:20:26.884Z,2.08
2017-05-05T15:22:55.918Z,2.34
2017-05-05T15:25:24.237Z,2.08
2017-05-05T15:27:52.526Z,1.58
2017-05-05T15:30:21.559Z,2.18
2017-05-05T15:32:49.871Z,1.90
2017-05-05T15:35:18.164Z,2.10
2017-05-05T15:37:46.455Z,1.38
2017-05-05T15:40:15.515Z,1.38
2017-05-05T15:42:43.802Z,1.48
2017-05-05T15:45:12.095Z,1.50
2017-05-05T15:47:40.411Z,2.18
2017-05-05T15:50:08.699Z,1.64
2017-05-05T15:52:36.990Z,1.80
2017-05-05T15:55:05.328Z,1.98
2017-05-05T15:57:34.362Z,1.34
2017-05-05T16:00:02.690Z,1.80
2017-05-05T16:02:31.770Z,1.70
2017-05-05T16:05:00.058Z,1.62
2017-05-05T16:07:29.087Z,1.84
2017-05-05T16:09:57.407Z,1.60
2017-05-05T16:12:26.438Z,1.68
2017-05-05T16:14:54.729Z,1.54
2017-05-05T16:17:23.055Z,1.92
2017-05-05T16:19:52.082Z,1.78
2017-05-05T16:22:20.372Z,1.98
2017-05-05T16:24:48.701Z,2.00
2017-05-05T16:27:17.726Z,2.22
2017-05-05T16:29:46.015Z,2.20
2017-05-05T16:32:14.303Z,2.20
2017-05-05T16:34:42.595Z,2.56
2017-05-05T16:37:10.887Z,1.98
2017-05-05T16:39:39.182Z,2.68
2017-05-05T16:42:07.470Z,1.90
2017-05-05T16:44:36.504Z,1.78
2017-05-05T16:47:05.539Z,2.48
2017-05-05T16:49:33.832Z,2.20
2017-05-05T16:52:02.125Z,2.62
2017-05-05T16:54:30.420Z,2.86
2017-05-05T16:56:59.456Z,2.46
2017-05-05T16:59:27.739Z,2.54
2017-05-05T17:01:56.032Z,2.18
2017-05-05T17:04:24.326Z,2.48
2017-05-05T17:06:52.623Z,2.48
2017-05-05T17:09:20.921Z,2.48
2017-05-05T17:11:49.951Z,3.20
2017-05-05T17:14:18.287Z,2.58
2017-05-05T17:16:47.320Z,2.26
2017-05-05T17:19:15.612Z,3.06
2017-05-05T17:21:43.898Z,2.92
2017-05-05T17:24:12.188Z,2.94
2017-05-05T17:26:40.508Z,2.80
2017-05-05T17:29:08.800Z,2.60
2017-05-05T17:31:37.092Z,4.06
2017-05-05T17:34:05.379Z,3.42
2017-05-05T17:36:33.667Z,3.02
2017-05-05T17:39:01.952Z,2.52
2017-05-05T17:41:30.245Z,2.50
2017-05-05T17:43:58.540Z,2.70
2017-05-05T17:46:26.831Z,2.90
2017-05-05T17:48:55.123Z,2.90
2017-05-05T17:51:23.414Z,3.40
2017-05-05T17:53:51.706Z,3.34
2017-05-05T17:56:20.006Z,2.88
2017-05-05T17:58:49.067Z,2.96
2017-05-05T18:01:17.364Z,3.50
2017-05-05T18:03:46.400Z,2.50
2017-05-05T18:06:14.690Z,3.10
2017-05-05T18:08:42.978Z,3.50
2017-05-05T18:11:11.271Z,2.96
2017-05-05T18:13:39.571Z,4.06
2017-05-05T18:16:08.602Z,3.48
2017-05-05T18:18:36.889Z,2.70
2017-05-05T18:21:05.179Z,3.08
2017-05-05T18:23:33.475Z,2.88
2017-05-05T18:26:01.770Z,2.48
2017-05-05T18:28:30.803Z,2.20
2017-05-05T18:30:59.086Z,2.66
2017-05-05T18:33:27.381Z,2.20
2017-05-05T18:35:55.671Z,2.38
2017-05-05T18:38:23.958Z,2.38
2017-05-05T18:40:52.284Z,2.00
2017-05-05T18:43:20.581Z,1.70
2017-05-05T18:45:48.866Z,2.42
2017-05-05T18:48:17.157Z,2.20
2017-05-05T18:50:45.450Z,2.30
2017-05-05T18:53:14.480Z,2.10
2017-05-05T18:55:42.771Z,2.06
2017-05-05T18:58:11.063Z,1.88
2017-05-05T19:00:39.386Z,1.68
2017-05-05T19:03:08.446Z,1.88
2017-05-05T19:05:36.734Z,2.20
2017-05-05T19:08:05.022Z,1.64
2017-05-05T19:10:34.059Z,1.66
2017-05-05T19:13:02.351Z,1.28
2017-05-05T19:15:30.644Z,2.04
2017-05-05T19:17:58.936Z,2.16
2017-05-05T19:20:27.228Z,2.08
2017-05-05T19:22:55.520Z,1.28
2017-05-05T19:25:23.811Z,1.70
2017-05-05T19:27:52.105Z,1.36
2017-05-05T19:30:21.139Z,1.48
2017-05-05T19:32:49.431Z,1.56
2017-05-05T19:35:17.726Z,1.50
2017-05-05T19:37:46.019Z,1.40
2017-05-05T19:40:14.311Z,1.28
2017-05-05T19:42:42.605Z,0.80
2017-05-05T19:45:10.925Z,1.60
2017-05-05T19:47:39.219Z,1.84
2017-05-05T19:50:07.508Z,1.54
2017-05-05T19:52:35.800Z,2.26
2017-05-05T19:55:04.089Z,1.44
2017-05-05T19:57:32.379Z,1.44
2017-05-05T20:00:00.663Z,1.26
2017-05-05T20:02:28.955Z,1.44
2017-05-05T20:04:57.247Z,1.34
2017-05-05T20:07:25.577Z,1.42
2017-05-05T20:09:53.867Z,1.18
2017-05-05T20:12:22.159Z,1.22
2017-05-05T20:14:50.450Z,1.54
2017-05-05T20:17:18.738Z,1.74
2017-05-05T20:19:47.030Z,1.06
2017-05-05T20:22:15.319Z,1.34
2017-05-05T20:24:43.611Z,1.20
2017-05-05T20:27:11.906Z,1.18
2017-05-05T20:29:40.194Z,1.88
2017-05-05T20:32:08.478Z,1.44
2017-05-05T20:34:36.767Z,1.10
2017-05-05T20:37:05.064Z,1.16
2017-05-05T20:39:34.122Z,0.88
2017-05-05T20:42:02.406Z,1.20
2017-05-05T20:44:30.694Z,2.00
2017-05-05T20:46:59.002Z,2.00
2017-05-05T20:49:27.300Z,1.70
2017-05-05T20:51:55.623Z,2.32
2017-05-05T20:54:23.915Z,1.48
2017-05-05T20:56:52.944Z,1.30
2017-05-05T20:59:21.260Z,1.20
2017-05-05T21:01:49.550Z,1.66
2017-05-05T21:04:17.843Z,1.10
2017-05-05T21:06:46.911Z,2.24
2017-05-05T21:09:15.199Z,1.80
2017-05-05T21:11:43.483Z,1.80
2017-05-05T21:14:11.797Z,1.62
2017-05-05T21:16:40.087Z,1.32
2017-05-05T21:19:08.379Z,2.50
2017-05-05T21:21:36.697Z,2.14
2017-05-05T21:24:05.728Z,1.78
2017-05-05T21:26:34.023Z,1.88
2017-05-05T21:29:02.330Z,1.52
2017-05-05T21:31:30.620Z,2.04
2017-05-05T21:33:58.935Z,2.08
2017-05-05T21:36:27.223Z,1.92
2017-05-05T21:38:55.510Z,2.30
2017-05-05T21:41:23.840Z,2.42
2017-05-05T21:43:52.870Z,1.38
2017-05-05T21:46:21.158Z,1.16
2017-05-05T21:48:49.478Z,1.82
2017-05-05T21:51:17.768Z,2.22
2017-05-05T21:53:46.803Z,1.88
2017-05-05T21:56:15.411Z,2.60
2017-05-05T21:58:43.699Z,2.20
2017-05-05T22:01:11.991Z,2.02
2017-05-05T22:03:40.315Z,1.94
2017-05-05T22:06:08.607Z,1.88
2017-05-05T22:08:36.898Z,1.98
2017-05-05T22:11:05.211Z,1.92
2017-05-05T22:13:34.245Z,1.32
2017-05-05T22:16:02.535Z,1.22
2017-05-05T22:18:30.861Z,1.48
2017-05-05T22:20:59.891Z,2.36
2017-05-05T22:23:28.197Z,2.28
2017-05-05T22:25:56.530Z,2.00
2017-05-05T22:28:24.820Z,1.50
2017-05-05T22:30:53.136Z,1.60
2017-05-05T22:33:21.462Z,2.72
2017-05-05T22:35:49.769Z,1.74
2017-05-05T22:38:18.083Z,1.50
2017-05-05T22:40:46.417Z,1.68
2017-05-05T22:43:14.724Z,1.82
2017-05-05T22:45:43.046Z,1.50
2017-05-05T22:48:11.406Z,1.50
2017-05-05T22:50:40.435Z,1.34
2017-05-05T22:53:08.737Z,2.34
2017-05-05T22:55:37.083Z,2.62
2017-05-05T22:58:05.383Z,2.64
2017-05-05T23:00:33.686Z,2.24
2017-05-05T23:03:02.037Z,1.28
2017-05-05T23:05:30.354Z,1.10
2017-05-05T23:07:58.649Z,1.60
2017-05-05T23:10:27.741Z,1.20
2017-05-05T23:12:56.823Z,1.10
2017-05-05T23:15:25.137Z,1.15
2017-05-05T23:17:53.494Z,2.60
2017-05-05T23:20:22.550Z,2.14
2017-05-05T23:22:50.867Z,2.55
2017-05-05T23:25:19.971Z,2.35
2017-05-05T23:27:49.022Z,1.70
2017-05-05T23:30:17.319Z,1.50
2017-05-05T23:32:45.670Z,2.47
2017-05-05T23:35:13.977Z,1.97
2017-05-05T23:37:42.274Z,1.32
2017-05-05T23:40:10.622Z,1.47
2017-05-05T23:42:38.923Z,2.18
2017-05-05T23:45:07.235Z,1.80
2017-05-05T23:47:35.593Z,1.73
2017-05-05T23:50:03.895Z,2.38
2017-05-05T23:52:32.187Z,2.14
2017-05-05T23:55:01.266Z,3.85
2017-05-05T23:57:29.559Z,1.72
2017-05-05T23:59:58.609Z,3.38
